createdAt,value
2024-04-18T00:02:15.703Z,99710.26
2024-04-18T00:07:08.332Z,99715.61
2024-04-18T00:12:01.220Z,99716.98
2024-04-18T00:17:10.990Z,99713.58
2024-04-18T00:22:04.527Z,99718.27
2024-04-18T00:26:57.787Z,99726.66
2024-04-18T00:31:59.056Z,99726.42
2024-04-18T00:37:01.063Z,99725.84
2024-04-18T00:42:13.599Z,99723.00
2024-04-18T00:47:26.360Z,99719.39
2024-04-18T00:52:33.994Z,99721.28
2024-04-18T00:57:27.046Z,99727.41
2024-04-18T01:02:26.108Z,99725.35
2024-04-18T01:07:38.628Z,99726.95
2024-04-18T01:12:56.288Z,99727.09
2024-04-18T01:18:08.856Z,99730.35
2024-04-18T01:23:01.548Z,99733.64
2024-04-18T01:28:23.416Z,99737.23
2024-04-18T01:33:26.566Z,99738.93
2024-04-18T01:38:19.322Z,99741.48
2024-04-18T01:43:11.911Z,99745.41
2024-04-18T01:48:23.296Z,99749.96
2024-04-18T01:53:34.805Z,99749.16
2024-04-18T01:58:27.376Z,99751.73
2024-04-18T02:03:20.134Z,99754.41
2024-04-18T02:08:12.785Z,99750.17
2024-04-18T02:13:10.610Z,99754.00
2024-04-18T02:18:12.227Z,99764.66
2024-04-18T02:23:07.410Z,99768.04
2024-04-18T02:28:15.297Z,99764.59
2024-04-18T02:33:07.923Z,99762.65
2024-04-18T02:38:10.449Z,99759.16
2024-04-18T02:43:03.991Z,99767.55
2024-04-18T02:47:59.446Z,99763.30
2024-04-18T02:53:07.455Z,99767.51
2024-04-18T02:58:00.054Z,99766.92
2024-04-18T03:02:52.794Z,99762.92
2024-04-18T03:07:46.072Z,99761.33
2024-04-18T03:12:38.740Z,99761.96
2024-04-18T03:18:06.663Z,99762.70
2024-04-18T03:23:00.774Z,99761.17
2024-04-18T03:27:53.488Z,99765.83
2024-04-18T03:32:46.164Z,99769.94
2024-04-18T03:37:39.030Z,99769.92
2024-04-18T03:42:50.191Z,99770.52
2024-04-18T03:47:42.883Z,99774.73
2024-04-18T03:52:35.541Z,99784.75
2024-04-18T03:57:32.779Z,99779.83
2024-04-18T04:02:25.417Z,99783.37
2024-04-18T04:07:19.183Z,99784.85
2024-04-18T04:12:11.738Z,99788.38
2024-04-18T04:17:24.016Z,99791.22
2024-04-18T04:22:33.480Z,99790.22
2024-04-18T04:27:45.385Z,99788.90
2024-04-18T04:32:38.158Z,99788.45
2024-04-18T04:37:50.750Z,99793.55
2024-04-18T04:42:43.340Z,99792.00
2024-04-18T04:47:36.019Z,99794.90
2024-04-18T04:52:48.609Z,99795.10
2024-04-18T04:57:44.242Z,99799.91
2024-04-18T05:02:48.748Z,99800.48
2024-04-18T05:07:44.653Z,99801.01
2024-04-18T05:13:17.423Z,99802.23
2024-04-18T05:18:10.796Z,99805.34
2024-04-18T05:23:04.497Z,99808.88
2024-04-18T05:28:05.504Z,99815.05
2024-04-18T05:33:00.806Z,99805.51
2024-04-18T05:37:53.554Z,99805.29
2024-04-18T05:42:46.070Z,99804.47
2024-04-18T05:47:38.526Z,99805.74
2024-04-18T05:52:30.970Z,99809.29
2024-04-18T05:57:43.581Z,99820.50
2024-04-18T06:02:56.000Z,99821.92
2024-04-18T06:07:48.435Z,99824.83
2024-04-18T06:12:40.900Z,99825.63
2024-04-18T06:17:33.299Z,99828.70
2024-04-18T06:22:28.411Z,99827.09
2024-04-18T06:27:40.843Z,99828.20
2024-04-18T06:32:33.422Z,99833.42
2024-04-18T06:37:27.027Z,99834.98
2024-04-18T06:42:19.570Z,99830.83
2024-04-18T06:47:12.045Z,99824.16
2024-04-18T06:52:04.685Z,99832.11
2024-04-18T06:56:57.108Z,99837.05
2024-04-18T07:01:50.025Z,99838.04
2024-04-18T07:06:42.598Z,99838.27
2024-04-18T07:11:35.179Z,99838.48
2024-04-18T07:16:27.641Z,99844.52
2024-04-18T07:21:20.109Z,99840.84
2024-04-18T07:26:12.647Z,99844.06
2024-04-18T07:31:05.170Z,99847.62
2024-04-18T07:35:59.815Z,99853.39
2024-04-18T07:40:52.314Z,99862.48
2024-04-18T07:45:44.878Z,99863.70
2024-04-18T07:50:37.352Z,99852.61
2024-04-18T07:55:31.336Z,99844.57
2024-04-18T08:00:24.769Z,99842.50
2024-04-18T08:05:20.558Z,99854.17
2024-04-18T08:10:18.144Z,99857.41
2024-04-18T08:15:17.328Z,99850.01
2024-04-18T08:20:12.726Z,99849.66
2024-04-18T08:25:07.551Z,99847.55
2024-04-18T08:30:00.028Z,99855.49
2024-04-18T08:34:52.554Z,99856.58
2024-04-18T08:39:45.112Z,99857.11
2024-04-18T08:44:40.320Z,99861.65
2024-04-18T08:49:35.162Z,99865.55
2024-04-18T08:54:28.711Z,99866.71
2024-04-18T08:59:23.173Z,99868.84
2024-04-18T09:04:15.644Z,99871.83
2024-04-18T09:09:15.503Z,99867.02
2024-04-18T09:14:08.126Z,99862.81
2024-04-18T09:19:00.939Z,99869.14
2024-04-18T09:23:53.415Z,99874.39
2024-04-18T09:28:46.474Z,99873.01
2024-04-18T09:33:39.092Z,99870.23
2024-04-18T09:38:33.394Z,99865.22
2024-04-18T09:43:43.341Z,99856.14
2024-04-18T09:48:36.706Z,99860.05
2024-04-18T09:53:33.115Z,99862.12
2024-04-18T09:58:28.429Z,99857.08
2024-04-18T10:03:21.807Z,99849.29
2024-04-18T10:08:14.693Z,99838.38
2024-04-18T10:13:07.693Z,99832.27
2024-04-18T10:18:00.428Z,99825.91
2024-04-18T10:23:02.793Z,99816.54
2024-04-18T10:27:55.276Z,99815.04
2024-04-18T10:32:49.447Z,99814.46
2024-04-18T10:37:51.017Z,99816.16
2024-04-18T10:42:43.601Z,99822.26
2024-04-18T10:47:36.822Z,99832.89
2024-04-18T10:52:29.623Z,99836.79
2024-04-18T10:57:22.722Z,99845.96
2024-04-18T11:02:17.393Z,99858.72
2024-04-18T11:07:10.040Z,99858.87
2024-04-18T11:12:04.139Z,99847.86
2024-04-18T11:17:02.346Z,99840.96
2024-04-18T11:21:55.110Z,99844.79
2024-04-18T11:26:51.172Z,99842.07
2024-04-18T11:31:44.022Z,99829.17
2024-04-18T11:36:39.922Z,99821.89
2024-04-18T11:41:33.140Z,99817.30
2024-04-18T11:46:26.061Z,99814.35
2024-04-18T11:51:18.773Z,99822.91
2024-04-18T11:56:11.838Z,99844.73
2024-04-18T12:01:04.967Z,99860.24
2024-04-18T12:06:06.698Z,99870.34
2024-04-18T12:11:15.796Z,99890.37
2024-04-18T12:16:08.439Z,99890.19
2024-04-18T12:21:01.112Z,99881.61
2024-04-18T12:26:03.021Z,99878.89
2024-04-18T12:31:12.464Z,99870.73
2024-04-18T12:36:18.362Z,99863.55
2024-04-18T12:41:10.975Z,99863.79
2024-04-18T12:46:11.458Z,99862.63
2024-04-18T12:51:16.684Z,99861.10
2024-04-18T12:56:09.535Z,99855.13
2024-04-18T13:01:02.236Z,99850.84
2024-04-18T13:06:03.657Z,99858.52
2024-04-18T13:11:14.508Z,99865.66
2024-04-18T13:16:07.338Z,99864.70
2024-04-18T13:20:59.948Z,99866.17
2024-04-18T13:25:53.903Z,99861.85
2024-04-18T13:30:46.978Z,99860.25
2024-04-18T13:35:59.677Z,99859.17
2024-04-18T13:40:52.209Z,99848.86
2024-04-18T13:45:44.845Z,99849.42
2024-04-18T13:50:37.462Z,99848.29
2024-04-18T13:55:30.096Z,99848.12
2024-04-18T14:00:22.860Z,99853.10
2024-04-18T14:05:34.372Z,99854.95
2024-04-18T14:10:26.916Z,99850.79
2024-04-18T14:16:11.889Z,99849.97
2024-04-18T14:21:18.002Z,99854.20
2024-04-18T14:26:11.039Z,99851.17
2024-04-18T14:31:12.576Z,99860.27
2024-04-18T14:36:14.301Z,99863.85
2024-04-18T14:41:11.828Z,99875.94
2024-04-18T14:46:05.546Z,99880.22
2024-04-18T14:51:10.906Z,99880.71
2024-04-18T14:56:12.764Z,99876.77
2024-04-18T15:01:24.667Z,99880.61
2024-04-18T15:06:17.770Z,99885.79
2024-04-18T15:11:31.799Z,99888.75
2024-04-18T15:16:27.376Z,99891.42
2024-04-18T15:21:22.020Z,99893.48
2024-04-18T15:26:33.291Z,99896.63
2024-04-18T15:31:25.895Z,99898.56
2024-04-18T15:36:24.373Z,99908.25
2024-04-18T15:41:17.070Z,99904.96
2024-04-18T15:46:09.619Z,99911.36
2024-04-18T15:51:02.272Z,99913.24
2024-04-18T15:55:54.841Z,99916.72
2024-04-18T16:00:53.147Z,99919.14
2024-04-18T16:05:59.532Z,99924.38
2024-04-18T16:11:08.528Z,99931.09
2024-04-18T16:16:19.851Z,99933.91
2024-04-18T16:21:13.154Z,99932.05
2024-04-18T16:26:06.369Z,99935.73
2024-04-18T16:30:59.679Z,99938.46
2024-04-18T16:35:52.275Z,99939.91
2024-04-18T16:40:44.938Z,99943.84
2024-04-18T16:45:54.888Z,99945.18
2024-04-18T16:50:47.573Z,99954.89
2024-04-18T16:55:40.191Z,99955.99
2024-04-18T17:00:41.867Z,99959.07
2024-04-18T17:05:37.477Z,99960.83
2024-04-18T17:10:30.152Z,99964.84
2024-04-18T17:15:49.199Z,99967.63
2024-04-18T17:20:43.496Z,99969.98
2024-04-18T17:25:40.620Z,99976.67
2024-04-18T17:30:33.370Z,99976.63
2024-04-18T17:35:25.981Z,99977.52
2024-04-18T17:40:36.494Z,99976.91
2024-04-18T17:45:29.099Z,99982.20
2024-04-18T17:50:47.939Z,99980.27
2024-04-18T17:55:40.505Z,99976.76
2024-04-18T18:00:33.127Z,99979.33
2024-04-18T18:05:25.898Z,99978.38
2024-04-18T18:10:38.452Z,99978.64
2024-04-18T18:15:37.073Z,99985.63
2024-04-18T18:20:29.736Z,99986.76
2024-04-18T18:25:22.421Z,99990.20
2024-04-18T18:30:15.868Z,99991.36
2024-04-18T18:35:09.442Z,99993.70
2024-04-18T18:40:02.133Z,99996.22
2024-04-18T18:44:54.719Z,99994.77
2024-04-18T18:49:47.422Z,99994.25
2024-04-18T18:54:40.312Z,99993.88
2024-04-18T18:59:34.104Z,100000.52
2024-04-18T19:04:29.624Z,99999.36
2024-04-18T19:09:23.654Z,99998.77
2024-04-18T19:14:16.536Z,100002.21
2024-04-18T19:19:28.303Z,99999.95
2024-04-18T19:24:21.132Z,100002.31
2024-04-18T19:29:31.379Z,100002.36
2024-04-18T19:34:33.508Z,99998.15
2024-04-18T19:39:26.500Z,100000.30
2024-04-18T19:44:25.434Z,99997.38
2024-04-18T19:49:18.468Z,99992.95
2024-04-18T19:54:20.914Z,99999.24
2024-04-18T19:59:13.730Z,99999.52
2024-04-18T20:04:06.426Z,99994.64
2024-04-18T20:09:01.120Z,99996.27
2024-04-18T20:13:53.870Z,99998.20
2024-04-18T20:18:47.764Z,100001.79
2024-04-18T20:23:40.592Z,99996.11
2024-04-18T20:28:34.288Z,100001.30
2024-04-18T20:33:26.964Z,100003.86
2024-04-18T20:38:19.593Z,100001.23
2024-04-18T20:43:12.386Z,99999.48
2024-04-18T20:48:05.862Z,100000.11
2024-04-18T20:52:58.532Z,100003.50
2024-04-18T20:57:51.406Z,100001.52
2024-04-18T21:02:44.574Z,100004.35
2024-04-18T21:07:37.205Z,99999.55
2024-04-18T21:12:29.764Z,100001.67
2024-04-18T21:17:22.251Z,99998.73
2024-04-18T21:22:14.922Z,99999.20
2024-04-18T21:27:07.597Z,100003.16
2024-04-18T21:32:00.133Z,100009.05
2024-04-18T21:36:52.633Z,100006.36
2024-04-18T21:41:46.607Z,100006.60
2024-04-18T21:46:39.338Z,100007.10
2024-04-18T21:51:31.892Z,100004.36
2024-04-18T21:56:24.425Z,100006.14
2024-04-18T22:01:17.107Z,100007.61
2024-04-18T22:06:09.670Z,100007.20
2024-04-18T22:11:02.269Z,100007.30
2024-04-18T22:16:06.160Z,100007.55
2024-04-18T22:20:58.652Z,100005.48
2024-04-18T22:25:51.269Z,100003.59
2024-04-18T22:30:43.829Z,100003.41
2024-04-18T22:35:36.406Z,100004.27
2024-04-18T22:40:28.930Z,100002.12
2024-04-18T22:45:21.561Z,100004.38
2024-04-18T22:50:14.054Z,100000.29
2024-04-18T22:55:06.625Z,99996.25
2024-04-18T22:59:59.077Z,99991.40
2024-04-18T23:04:51.560Z,99989.20
2024-04-18T23:09:44.049Z,99986.13
2024-04-18T23:14:36.555Z,99992.22
2024-04-18T23:19:29.078Z,99994.27
2024-04-18T23:24:21.599Z,99989.66
2024-04-18T23:29:15.029Z,99994.73
2024-04-18T23:34:07.606Z,99991.88
2024-04-18T23:39:00.127Z,99989.74
2024-04-18T23:43:52.647Z,99986.94
2024-04-18T23:48:45.307Z,99987.13
2024-04-18T23:53:38.049Z,99982.14
2024-04-18T23:58:31.628Z,99978.11
